sensor_id;sensor_type;location;lat;lon;timestamp;P1;durP1;ratioP1;P2;durP2;ratioP2
27839;SDS011;15207;42.182;24.308;2023-04-30T00:01:48;9.35;;;5.97;;
27839;SDS011;15207;42.182;24.308;2023-04-30T00:04:14;11.23;;;6.35;;
27839;SDS011;15207;42.182;24.308;2023-04-30T00:06:40;10.75;;;5.72;;
27839;SDS011;15207;42.182;24.308;2023-04-30T00:09:05;11.15;;;5.93;;
27839;SDS011;15207;42.182;24.308;2023-04-30T00:11:31;9.13;;;5.88;;
27839;SDS011;15207;42.182;24.308;2023-04-30T00:13:56;7.93;;;5.28;;
27839;SDS011;15207;42.182;24.308;2023-04-30T00:16:22;12.00;;;5.55;;
27839;SDS011;15207;42.182;24.308;2023-04-30T00:18:47;8.57;;;5.10;;
27839;SDS011;15207;42.182;24.308;2023-04-30T00:21:13;10.95;;;5.93;;
27839;SDS011;15207;42.182;24.308;2023-04-30T00:23:38;7.82;;;5.30;;
27839;SDS011;15207;42.182;24.308;2023-04-30T00:26:04;7.50;;;5.18;;
27839;SDS011;15207;42.182;24.308;2023-04-30T00:28:29;7.55;;;5.07;;
27839;SDS011;15207;42.182;24.308;2023-04-30T00:30:55;6.55;;;5.07;;
27839;SDS011;15207;42.182;24.308;2023-04-30T00:33:20;7.47;;;5.72;;
27839;SDS011;15207;42.182;24.308;2023-04-30T00:35:46;7.85;;;5.25;;
27839;SDS011;15207;42.182;24.308;2023-04-30T00:38:11;8.80;;;5.72;;
27839;SDS011;15207;42.182;24.308;2023-04-30T00:40:37;7.90;;;5.57;;
27839;SDS011;15207;42.182;24.308;2023-04-30T00:43:05;6.93;;;5.35;;
27839;SDS011;15207;42.182;24.308;2023-04-30T00:45:31;7.50;;;5.57;;
27839;SDS011;15207;42.182;24.308;2023-04-30T00:47:56;7.75;;;5.30;;
27839;SDS011;15207;42.182;24.308;2023-04-30T00:50:22;8.43;;;6.00;;
27839;SDS011;15207;42.182;24.308;2023-04-30T00:52:48;8.38;;;4.95;;
27839;SDS011;15207;42.182;24.308;2023-04-30T00:55:14;10.55;;;5.70;;
27839;SDS011;15207;42.182;24.308;2023-04-30T00:57:41;7.32;;;5.20;;
27839;SDS011;15207;42.182;24.308;2023-04-30T01:00:07;7.53;;;5.65;;
27839;SDS011;15207;42.182;24.308;2023-04-30T01:02:34;8.30;;;5.40;;
27839;SDS011;15207;42.182;24.308;2023-04-30T01:05:01;6.57;;;4.70;;
27839;SDS011;15207;42.182;24.308;2023-04-30T01:07:27;7.75;;;5.20;;
27839;SDS011;15207;42.182;24.308;2023-04-30T01:09:54;7.15;;;4.82;;
27839;SDS011;15207;42.182;24.308;2023-04-30T01:20:47;6.07;;;4.53;;
27839;SDS011;15207;42.182;24.308;2023-04-30T01:26:13;6.22;;;4.78;;
27839;SDS011;15207;42.182;24.308;2023-04-30T01:28:45;5.97;;;4.50;;
27839;SDS011;15207;42.182;24.308;2023-04-30T01:31:15;5.63;;;4.38;;
27839;SDS011;15207;42.182;24.308;2023-04-30T01:33:43;7.07;;;4.30;;
27839;SDS011;15207;42.182;24.308;2023-04-30T01:36:12;5.72;;;4.35;;
27839;SDS011;15207;42.182;24.308;2023-04-30T01:42:00;5.72;;;4.22;;
27839;SDS011;15207;42.182;24.308;2023-04-30T01:44:48;4.93;;;4.05;;
27839;SDS011;15207;42.182;24.308;2023-04-30T01:52:54;7.60;;;4.22;;
27839;SDS011;15207;42.182;24.308;2023-04-30T01:57:56;5.32;;;3.90;;
27839;SDS011;15207;42.182;24.308;2023-04-30T02:00:24;5.75;;;4.22;;
27839;SDS011;15207;42.182;24.308;2023-04-30T02:02:51;8.55;;;3.78;;
27839;SDS011;15207;42.182;24.308;2023-04-30T02:05:16;5.38;;;3.38;;
27839;SDS011;15207;42.182;24.308;2023-04-30T02:07:43;9.02;;;4.57;;
27839;SDS011;15207;42.182;24.308;2023-04-30T02:10:10;7.25;;;4.00;;
27839;SDS011;15207;42.182;24.308;2023-04-30T02:12:36;6.18;;;4.28;;
27839;SDS011;15207;42.182;24.308;2023-04-30T02:15:03;6.25;;;4.00;;
27839;SDS011;15207;42.182;24.308;2023-04-30T02:17:30;5.68;;;3.50;;
27839;SDS011;15207;42.182;24.308;2023-04-30T02:19:56;5.43;;;3.70;;
27839;SDS011;15207;42.182;24.308;2023-04-30T02:22:22;5.70;;;3.60;;
27839;SDS011;15207;42.182;24.308;2023-04-30T02:24:48;5.78;;;3.85;;
27839;SDS011;15207;42.182;24.308;2023-04-30T02:27:14;5.13;;;3.95;;
27839;SDS011;15207;42.182;24.308;2023-04-30T02:29:39;5.78;;;3.80;;
27839;SDS011;15207;42.182;24.308;2023-04-30T02:32:05;5.60;;;3.83;;
27839;SDS011;15207;42.182;24.308;2023-04-30T02:34:31;5.03;;;3.72;;
27839;SDS011;15207;42.182;24.308;2023-04-30T02:36:56;5.15;;;3.42;;
27839;SDS011;15207;42.182;24.308;2023-04-30T02:39:22;10.13;;;4.38;;
27839;SDS011;15207;42.182;24.308;2023-04-30T02:41:47;5.65;;;4.00;;
27839;SDS011;15207;42.182;24.308;2023-04-30T02:44:13;7.72;;;3.97;;
27839;SDS011;15207;42.182;24.308;2023-04-30T02:46:38;7.18;;;4.40;;
27839;SDS011;15207;42.182;24.308;2023-04-30T02:49:04;9.43;;;4.25;;
27839;SDS011;15207;42.182;24.308;2023-04-30T02:51:30;7.30;;;4.15;;
27839;SDS011;15207;42.182;24.308;2023-04-30T02:53:56;7.63;;;3.65;;
27839;SDS011;15207;42.182;24.308;2023-04-30T02:56:22;4.15;;;3.65;;
27839;SDS011;15207;42.182;24.308;2023-04-30T02:58:47;6.28;;;4.22;;
27839;SDS011;15207;42.182;24.308;2023-04-30T03:01:13;5.28;;;3.50;;
27839;SDS011;15207;42.182;24.308;2023-04-30T03:03:39;4.20;;;3.40;;
27839;SDS011;15207;42.182;24.308;2023-04-30T03:06:05;4.72;;;3.40;;
27839;SDS011;15207;42.182;24.308;2023-04-30T03:08:30;4.57;;;3.28;;
27839;SDS011;15207;42.182;24.308;2023-04-30T03:10:56;5.15;;;3.47;;
27839;SDS011;15207;42.182;24.308;2023-04-30T03:13:21;4.18;;;3.58;;
27839;SDS011;15207;42.182;24.308;2023-04-30T03:15:55;4.88;;;3.60;;
27839;SDS011;15207;42.182;24.308;2023-04-30T03:18:22;5.75;;;3.33;;
27839;SDS011;15207;42.182;24.308;2023-04-30T03:20:47;4.75;;;3.40;;
27839;SDS011;15207;42.182;24.308;2023-04-30T03:23:12;7.50;;;3.83;;
27839;SDS011;15207;42.182;24.308;2023-04-30T03:25:38;4.40;;;3.17;;
27839;SDS011;15207;42.182;24.308;2023-04-30T03:28:03;4.97;;;3.50;;
27839;SDS011;15207;42.182;24.308;2023-04-30T03:30:29;6.32;;;3.80;;
27839;SDS011;15207;42.182;24.308;2023-04-30T03:32:54;4.85;;;3.60;;
27839;SDS011;15207;42.182;24.308;2023-04-30T03:35:20;5.63;;;3.42;;
27839;SDS011;15207;42.182;24.308;2023-04-30T03:37:45;5.05;;;3.58;;
27839;SDS011;15207;42.182;24.308;2023-04-30T03:40:11;9.18;;;3.88;;
27839;SDS011;15207;42.182;24.308;2023-04-30T03:42:37;5.10;;;3.67;;
27839;SDS011;15207;42.182;24.308;2023-04-30T03:45:02;6.10;;;4.10;;
27839;SDS011;15207;42.182;24.308;2023-04-30T03:47:28;5.65;;;3.85;;
27839;SDS011;15207;42.182;24.308;2023-04-30T03:49:54;5.43;;;3.75;;
27839;SDS011;15207;42.182;24.308;2023-04-30T03:52:19;5.63;;;4.25;;
27839;SDS011;15207;42.182;24.308;2023-04-30T03:54:46;5.25;;;3.92;;
27839;SDS011;15207;42.182;24.308;2023-04-30T03:57:11;7.30;;;3.88;;
27839;SDS011;15207;42.182;24.308;2023-04-30T03:59:38;6.32;;;3.92;;
27839;SDS011;15207;42.182;24.308;2023-04-30T04:02:04;6.70;;;4.00;;
27839;SDS011;15207;42.182;24.308;2023-04-30T04:04:33;6.17;;;4.23;;
27839;SDS011;15207;42.182;24.308;2023-04-30T04:06:58;6.05;;;4.32;;
27839;SDS011;15207;42.182;24.308;2023-04-30T04:09:25;9.27;;;4.45;;
27839;SDS011;15207;42.182;24.308;2023-04-30T04:11:51;15.00;;;8.95;;
27839;SDS011;15207;42.182;24.308;2023-04-30T04:14:16;15.88;;;8.43;;
27839;SDS011;15207;42.182;24.308;2023-04-30T04:16:42;9.45;;;4.43;;
27839;SDS011;15207;42.182;24.308;2023-04-30T04:19:07;6.50;;;4.20;;
27839;SDS011;15207;42.182;24.308;2023-04-30T04:21:33;6.38;;;4.10;;
27839;SDS011;15207;42.182;24.308;2023-04-30T04:23:58;6.38;;;4.10;;
27839;SDS011;15207;42.182;24.308;2023-04-30T04:26:26;10.90;;;4.70;;
27839;SDS011;15207;42.182;24.308;2023-04-30T04:28:53;6.45;;;4.28;;
27839;SDS011;15207;42.182;24.308;2023-04-30T04:31:19;6.13;;;4.45;;
27839;SDS011;15207;42.182;24.308;2023-04-30T04:33:44;7.38;;;4.30;;
27839;SDS011;15207;42.182;24.308;2023-04-30T04:36:10;7.00;;;4.70;;
27839;SDS011;15207;42.182;24.308;2023-04-30T04:38:35;6.60;;;4.15;;
27839;SDS011;15207;42.182;24.308;2023-04-30T04:41:01;5.75;;;4.22;;
27839;SDS011;15207;42.182;24.308;2023-04-30T04:43:27;5.22;;;4.03;;
27839;SDS011;15207;42.182;24.308;2023-04-30T04:45:52;6.25;;;4.28;;
27839;SDS011;15207;42.182;24.308;2023-04-30T04:48:18;5.70;;;4.28;;
27839;SDS011;15207;42.182;24.308;2023-04-30T04:50:44;7.18;;;4.28;;
27839;SDS011;15207;42.182;24.308;2023-04-30T04:53:09;7.00;;;4.20;;
27839;SDS011;15207;42.182;24.308;2023-04-30T04:55:35;5.80;;;3.78;;
27839;SDS011;15207;42.182;24.308;2023-04-30T04:58:01;6.25;;;3.65;;
27839;SDS011;15207;42.182;24.308;2023-04-30T05:00:26;5.03;;;3.88;;
27839;SDS011;15207;42.182;24.308;2023-04-30T05:02:52;5.32;;;4.18;;
27839;SDS011;15207;42.182;24.308;2023-04-30T05:05:18;4.55;;;3.58;;
27839;SDS011;15207;42.182;24.308;2023-04-30T05:07:45;5.32;;;3.90;;
27839;SDS011;15207;42.182;24.308;2023-04-30T05:10:10;6.50;;;4.35;;
27839;SDS011;15207;42.182;24.308;2023-04-30T05:12:36;5.28;;;4.28;;
27839;SDS011;15207;42.182;24.308;2023-04-30T05:15:02;8.15;;;3.92;;
27839;SDS011;15207;42.182;24.308;2023-04-30T05:17:28;8.95;;;4.43;;
27839;SDS011;15207;42.182;24.308;2023-04-30T05:19:54;5.78;;;3.90;;
27839;SDS011;15207;42.182;24.308;2023-04-30T05:22:20;5.72;;;4.07;;
27839;SDS011;15207;42.182;24.308;2023-04-30T05:24:45;6.15;;;3.88;;
27839;SDS011;15207;42.182;24.308;2023-04-30T05:27:11;6.90;;;4.25;;
27839;SDS011;15207;42.182;24.308;2023-04-30T05:29:36;5.75;;;4.18;;
27839;SDS011;15207;42.182;24.308;2023-04-30T05:32:02;8.73;;;4.68;;
27839;SDS011;15207;42.182;24.308;2023-04-30T05:34:27;7.90;;;5.05;;
27839;SDS011;15207;42.182;24.308;2023-04-30T05:36:53;6.97;;;4.65;;
27839;SDS011;15207;42.182;24.308;2023-04-30T05:39:19;8.85;;;4.75;;
27839;SDS011;15207;42.182;24.308;2023-04-30T05:41:45;7.28;;;4.90;;
27839;SDS011;15207;42.182;24.308;2023-04-30T05:44:10;8.43;;;5.22;;
27839;SDS011;15207;42.182;24.308;2023-04-30T05:46:36;9.77;;;5.50;;
27839;SDS011;15207;42.182;24.308;2023-04-30T05:49:01;6.82;;;5.05;;
27839;SDS011;15207;42.182;24.308;2023-04-30T05:51:27;7.85;;;5.07;;
27839;SDS011;15207;42.182;24.308;2023-04-30T05:53:53;8.10;;;4.45;;
27839;SDS011;15207;42.182;24.308;2023-04-30T05:56:19;6.97;;;4.57;;
27839;SDS011;15207;42.182;24.308;2023-04-30T05:58:45;6.78;;;4.00;;
27839;SDS011;15207;42.182;24.308;2023-04-30T06:01:11;9.38;;;4.80;;
27839;SDS011;15207;42.182;24.308;2023-04-30T06:03:36;7.53;;;4.13;;
27839;SDS011;15207;42.182;24.308;2023-04-30T06:06:02;6.80;;;4.00;;
27839;SDS011;15207;42.182;24.308;2023-04-30T06:08:28;6.18;;;3.90;;
27839;SDS011;15207;42.182;24.308;2023-04-30T06:10:54;8.45;;;4.40;;
27839;SDS011;15207;42.182;24.308;2023-04-30T06:13:20;4.78;;;3.47;;
27839;SDS011;15207;42.182;24.308;2023-04-30T06:15:46;4.78;;;3.55;;
27839;SDS011;15207;42.182;24.308;2023-04-30T06:18:12;4.07;;;3.40;;
27839;SDS011;15207;42.182;24.308;2023-04-30T06:20:38;4.15;;;3.20;;
27839;SDS011;15207;42.182;24.308;2023-04-30T06:23:04;5.93;;;3.63;;
27839;SDS011;15207;42.182;24.308;2023-04-30T06:25:29;5.03;;;2.97;;
27839;SDS011;15207;42.182;24.308;2023-04-30T06:27:55;4.65;;;3.35;;
27839;SDS011;15207;42.182;24.308;2023-04-30T06:30:21;5.10;;;3.83;;
27839;SDS011;15207;42.182;24.308;2023-04-30T06:32:46;5.00;;;3.35;;
27839;SDS011;15207;42.182;24.308;2023-04-30T06:35:12;5.43;;;3.30;;
27839;SDS011;15207;42.182;24.308;2023-04-30T06:37:37;5.20;;;3.35;;
27839;SDS011;15207;42.182;24.308;2023-04-30T06:40:03;6.07;;;3.63;;
27839;SDS011;15207;42.182;24.308;2023-04-30T06:42:30;6.55;;;3.40;;
27839;SDS011;15207;42.182;24.308;2023-04-30T06:44:59;5.47;;;3.53;;
27839;SDS011;15207;42.182;24.308;2023-04-30T06:47:26;5.22;;;3.58;;
27839;SDS011;15207;42.182;24.308;2023-04-30T06:49:52;6.03;;;3.08;;
27839;SDS011;15207;42.182;24.308;2023-04-30T06:52:18;5.82;;;3.33;;
27839;SDS011;15207;42.182;24.308;2023-04-30T06:54:44;4.57;;;2.90;;
27839;SDS011;15207;42.182;24.308;2023-04-30T06:57:09;5.57;;;3.13;;
27839;SDS011;15207;42.182;24.308;2023-04-30T06:59:36;6.63;;;3.55;;
27839;SDS011;15207;42.182;24.308;2023-04-30T07:02:01;4.93;;;3.42;;
27839;SDS011;15207;42.182;24.308;2023-04-30T07:04:27;4.38;;;3.03;;
27839;SDS011;15207;42.182;24.308;2023-04-30T07:06:52;6.88;;;3.53;;
27839;SDS011;15207;42.182;24.308;2023-04-30T07:09:18;5.47;;;3.30;;
27839;SDS011;15207;42.182;24.308;2023-04-30T07:11:44;4.40;;;3.20;;
27839;SDS011;15207;42.182;24.308;2023-04-30T07:14:09;4.43;;;2.97;;
27839;SDS011;15207;42.182;24.308;2023-04-30T07:16:35;5.97;;;3.90;;
27839;SDS011;15207;42.182;24.308;2023-04-30T07:19:00;4.88;;;3.30;;
27839;SDS011;15207;42.182;24.308;2023-04-30T07:21:26;6.53;;;3.40;;
27839;SDS011;15207;42.182;24.308;2023-04-30T07:23:51;6.82;;;4.28;;
27839;SDS011;15207;42.182;24.308;2023-04-30T07:26:17;5.00;;;3.25;;
27839;SDS011;15207;42.182;24.308;2023-04-30T07:28:46;5.10;;;3.45;;
27839;SDS011;15207;42.182;24.308;2023-04-30T07:31:12;6.57;;;3.72;;
27839;SDS011;15207;42.182;24.308;2023-04-30T07:33:38;9.15;;;3.40;;
27839;SDS011;15207;42.182;24.308;2023-04-30T07:36:03;6.95;;;3.20;;
27839;SDS011;15207;42.182;24.308;2023-04-30T07:38:29;4.95;;;3.08;;
27839;SDS011;15207;42.182;24.308;2023-04-30T07:40:54;5.97;;;3.55;;
27839;SDS011;15207;42.182;24.308;2023-04-30T07:43:20;5.05;;;3.10;;
27839;SDS011;15207;42.182;24.308;2023-04-30T07:45:46;5.50;;;3.20;;
27839;SDS011;15207;42.182;24.308;2023-04-30T07:48:13;4.47;;;2.90;;
27839;SDS011;15207;42.182;24.308;2023-04-30T07:50:39;4.35;;;3.00;;
27839;SDS011;15207;42.182;24.308;2023-04-30T07:53:04;4.63;;;3.53;;
27839;SDS011;15207;42.182;24.308;2023-04-30T07:55:33;4.80;;;3.05;;
27839;SDS011;15207;42.182;24.308;2023-04-30T07:57:59;6.38;;;3.47;;
27839;SDS011;15207;42.182;24.308;2023-04-30T08:00:26;4.03;;;2.67;;
27839;SDS011;15207;42.182;24.308;2023-04-30T08:02:53;4.88;;;2.65;;
27839;SDS011;15207;42.182;24.308;2023-04-30T08:05:19;4.15;;;2.53;;
27839;SDS011;15207;42.182;24.308;2023-04-30T08:07:45;3.10;;;2.60;;
27839;SDS011;15207;42.182;24.308;2023-04-30T08:10:11;3.40;;;2.00;;
27839;SDS011;15207;42.182;24.308;2023-04-30T08:12:37;3.38;;;2.17;;
27839;SDS011;15207;42.182;24.308;2023-04-30T08:15:03;4.05;;;2.60;;
27839;SDS011;15207;42.182;24.308;2023-04-30T08:17:32;4.72;;;2.40;;
27839;SDS011;15207;42.182;24.308;2023-04-30T08:19:59;4.25;;;2.65;;
27839;SDS011;15207;42.182;24.308;2023-04-30T08:22:25;3.33;;;2.58;;
27839;SDS011;15207;42.182;24.308;2023-04-30T08:24:50;4.68;;;2.30;;
27839;SDS011;15207;42.182;24.308;2023-04-30T08:27:16;3.35;;;2.17;;
27839;SDS011;15207;42.182;24.308;2023-04-30T08:29:42;5.15;;;2.47;;
27839;SDS011;15207;42.182;24.308;2023-04-30T08:32:07;4.82;;;2.70;;
27839;SDS011;15207;42.182;24.308;2023-04-30T08:34:33;4.40;;;2.38;;
27839;SDS011;15207;42.182;24.308;2023-04-30T08:36:59;4.78;;;2.47;;
27839;SDS011;15207;42.182;24.308;2023-04-30T08:39:25;5.13;;;2.38;;
27839;SDS011;15207;42.182;24.308;2023-04-30T08:41:54;3.78;;;2.10;;
27839;SDS011;15207;42.182;24.308;2023-04-30T08:44:21;4.05;;;2.50;;
27839;SDS011;15207;42.182;24.308;2023-04-30T08:46:56;4.18;;;2.38;;
27839;SDS011;15207;42.182;24.308;2023-04-30T08:49:22;4.93;;;2.33;;
27839;SDS011;15207;42.182;24.308;2023-04-30T08:51:49;5.10;;;2.50;;
27839;SDS011;15207;42.182;24.308;2023-04-30T08:54:16;4.22;;;2.47;;
27839;SDS011;15207;42.182;24.308;2023-04-30T08:56:45;4.97;;;2.60;;
27839;SDS011;15207;42.182;24.308;2023-04-30T08:59:12;6.25;;;1.95;;
27839;SDS011;15207;42.182;24.308;2023-04-30T09:01:38;6.20;;;2.72;;
27839;SDS011;15207;42.182;24.308;2023-04-30T09:04:04;5.32;;;2.50;;
27839;SDS011;15207;42.182;24.308;2023-04-30T09:06:30;3.85;;;2.47;;
27839;SDS011;15207;42.182;24.308;2023-04-30T09:08:56;4.07;;;2.05;;
27839;SDS011;15207;42.182;24.308;2023-04-30T09:13:52;2.80;;;2.10;;
27839;SDS011;15207;42.182;24.308;2023-04-30T09:16:20;2.42;;;2.08;;
27839;SDS011;15207;42.182;24.308;2023-04-30T09:18:46;5.03;;;2.30;;
27839;SDS011;15207;42.182;24.308;2023-04-30T09:21:12;4.82;;;2.10;;
27839;SDS011;15207;42.182;24.308;2023-04-30T09:23:54;3.45;;;2.08;;
27839;SDS011;15207;42.182;24.308;2023-04-30T09:26:25;2.50;;;1.88;;
27839;SDS011;15207;42.182;24.308;2023-04-30T09:28:58;2.22;;;1.73;;
27839;SDS011;15207;42.182;24.308;2023-04-30T09:31:25;2.78;;;2.05;;
27839;SDS011;15207;42.182;24.308;2023-04-30T09:33:51;3.55;;;1.70;;
27839;SDS011;15207;42.182;24.308;2023-04-30T09:38:46;2.53;;;1.83;;
27839;SDS011;15207;42.182;24.308;2023-04-30T09:41:21;2.15;;;1.90;;
27839;SDS011;15207;42.182;24.308;2023-04-30T09:43:55;2.33;;;1.70;;
27839;SDS011;15207;42.182;24.308;2023-04-30T09:46:21;2.42;;;1.80;;
27839;SDS011;15207;42.182;24.308;2023-04-30T09:48:58;2.80;;;2.03;;
27839;SDS011;15207;42.182;24.308;2023-04-30T09:51:25;4.70;;;2.03;;
27839;SDS011;15207;42.182;24.308;2023-04-30T09:53:51;2.55;;;1.88;;
27839;SDS011;15207;42.182;24.308;2023-04-30T09:56:23;3.05;;;1.60;;
27839;SDS011;15207;42.182;24.308;2023-04-30T09:58:54;2.75;;;2.20;;
27839;SDS011;15207;42.182;24.308;2023-04-30T10:01:22;3.15;;;1.60;;
27839;SDS011;15207;42.182;24.308;2023-04-30T10:03:53;3.13;;;1.50;;
27839;SDS011;15207;42.182;24.308;2023-04-30T10:06:19;1.80;;;1.50;;
27839;SDS011;15207;42.182;24.308;2023-04-30T10:08:55;2.03;;;1.67;;
27839;SDS011;15207;42.182;24.308;2023-04-30T10:11:22;3.22;;;1.58;;
27839;SDS011;15207;42.182;24.308;2023-04-30T10:18:57;3.88;;;1.63;;
27839;SDS011;15207;42.182;24.308;2023-04-30T10:21:28;2.67;;;1.40;;
27839;SDS011;15207;42.182;24.308;2023-04-30T10:23:54;4.15;;;1.35;;
27839;SDS011;15207;42.182;24.308;2023-04-30T10:26:20;1.80;;;1.05;;
27839;SDS011;15207;42.182;24.308;2023-04-30T10:28:47;1.27;;;1.00;;
27839;SDS011;15207;42.182;24.308;2023-04-30T10:31:14;1.60;;;1.10;;
27839;SDS011;15207;42.182;24.308;2023-04-30T10:33:55;1.35;;;1.17;;
27839;SDS011;15207;42.182;24.308;2023-04-30T10:36:46;2.88;;;1.50;;
27839;SDS011;15207;42.182;24.308;2023-04-30T10:39:20;1.83;;;1.25;;
27839;SDS011;15207;42.182;24.308;2023-04-30T10:41:47;1.45;;;1.23;;
27839;SDS011;15207;42.182;24.308;2023-04-30T10:44:13;2.50;;;1.40;;
27839;SDS011;15207;42.182;24.308;2023-04-30T10:46:40;3.42;;;2.17;;
27839;SDS011;15207;42.182;24.308;2023-04-30T10:49:06;1.25;;;0.98;;
27839;SDS011;15207;42.182;24.308;2023-04-30T10:51:48;3.17;;;1.52;;
27839;SDS011;15207;42.182;24.308;2023-04-30T10:54:30;3.33;;;1.67;;
27839;SDS011;15207;42.182;24.308;2023-04-30T10:57:13;3.00;;;1.50;;
27839;SDS011;15207;42.182;24.308;2023-04-30T11:02:41;1.73;;;1.00;;
27839;SDS011;15207;42.182;24.308;2023-04-30T11:05:12;1.95;;;1.30;;
27839;SDS011;15207;42.182;24.308;2023-04-30T11:07:48;1.75;;;1.17;;
27839;SDS011;15207;42.182;24.308;2023-04-30T11:10:15;1.88;;;1.17;;
27839;SDS011;15207;42.182;24.308;2023-04-30T11:12:52;1.77;;;1.30;;
27839;SDS011;15207;42.182;24.308;2023-04-30T11:15:20;4.15;;;1.25;;
27839;SDS011;15207;42.182;24.308;2023-04-30T11:17:48;1.40;;;1.10;;
27839;SDS011;15207;42.182;24.308;2023-04-30T11:20:18;1.13;;;1.00;;
27839;SDS011;15207;42.182;24.308;2023-04-30T11:22:47;2.03;;;1.20;;
27839;SDS011;15207;42.182;24.308;2023-04-30T11:25:17;1.38;;;1.02;;
27839;SDS011;15207;42.182;24.308;2023-04-30T11:27:43;1.83;;;1.00;;
27839;SDS011;15207;42.182;24.308;2023-04-30T11:30:16;1.80;;;1.00;;
27839;SDS011;15207;42.182;24.308;2023-04-30T11:32:43;1.55;;;0.98;;
27839;SDS011;15207;42.182;24.308;2023-04-30T11:35:11;1.23;;;0.95;;
27839;SDS011;15207;42.182;24.308;2023-04-30T11:37:39;1.20;;;0.95;;
27839;SDS011;15207;42.182;24.308;2023-04-30T11:40:08;1.33;;;0.98;;
27839;SDS011;15207;42.182;24.308;2023-04-30T11:42:36;1.25;;;1.00;;
27839;SDS011;15207;42.182;24.308;2023-04-30T11:45:06;1.08;;;0.98;;
27839;SDS011;15207;42.182;24.308;2023-04-30T11:47:47;1.83;;;0.93;;
27839;SDS011;15207;42.182;24.308;2023-04-30T11:50:18;1.33;;;1.10;;
27839;SDS011;15207;42.182;24.308;2023-04-30T11:52:51;0.95;;;0.95;;
27839;SDS011;15207;42.182;24.308;2023-04-30T11:55:18;1.13;;;0.90;;
27839;SDS011;15207;42.182;24.308;2023-04-30T11:57:47;1.40;;;1.00;;
27839;SDS011;15207;42.182;24.308;2023-04-30T12:02:42;1.35;;;0.85;;
27839;SDS011;15207;42.182;24.308;2023-04-30T12:07:43;1.38;;;1.20;;
27839;SDS011;15207;42.182;24.308;2023-04-30T12:10:10;1.38;;;1.00;;
27839;SDS011;15207;42.182;24.308;2023-04-30T12:12:36;2.35;;;1.10;;
27839;SDS011;15207;42.182;24.308;2023-04-30T12:15:14;1.00;;;0.90;;
27839;SDS011;15207;42.182;24.308;2023-04-30T12:17:47;1.13;;;1.02;;
27839;SDS011;15207;42.182;24.308;2023-04-30T12:20:13;1.73;;;1.10;;
27839;SDS011;15207;42.182;24.308;2023-04-30T12:22:40;1.25;;;1.02;;
27839;SDS011;15207;42.182;24.308;2023-04-30T12:25:17;1.38;;;1.00;;
27839;SDS011;15207;42.182;24.308;2023-04-30T12:27:44;1.25;;;1.10;;
27839;SDS011;15207;42.182;24.308;2023-04-30T12:30:11;1.13;;;0.90;;
27839;SDS011;15207;42.182;24.308;2023-04-30T12:32:38;2.83;;;1.30;;
27839;SDS011;15207;42.182;24.308;2023-04-30T12:35:06;1.30;;;1.10;;
27839;SDS011;15207;42.182;24.308;2023-04-30T12:37:33;3.22;;;1.25;;
27839;SDS011;15207;42.182;24.308;2023-04-30T12:39:59;1.98;;;1.48;;
27839;SDS011;15207;42.182;24.308;2023-04-30T12:42:30;1.08;;;0.98;;
27839;SDS011;15207;42.182;24.308;2023-04-30T12:44:58;1.33;;;0.93;;
27839;SDS011;15207;42.182;24.308;2023-04-30T12:47:24;0.77;;;0.77;;
27839;SDS011;15207;42.182;24.308;2023-04-30T12:49:49;0.63;;;0.63;;
27839;SDS011;15207;42.182;24.308;2023-04-30T12:52:15;1.02;;;0.88;;
27839;SDS011;15207;42.182;24.308;2023-04-30T12:54:41;0.90;;;0.90;;
27839;SDS011;15207;42.182;24.308;2023-04-30T12:57:07;1.50;;;0.90;;
27839;SDS011;15207;42.182;24.308;2023-04-30T13:02:21;1.00;;;1.00;;
27839;SDS011;15207;42.182;24.308;2023-04-30T13:04:48;1.02;;;0.80;;
27839;SDS011;15207;42.182;24.308;2023-04-30T13:07:15;1.55;;;1.00;;
27839;SDS011;15207;42.182;24.308;2023-04-30T13:09:40;1.83;;;1.35;;
27839;SDS011;15207;42.182;24.308;2023-04-30T13:12:06;1.58;;;1.48;;
27839;SDS011;15207;42.182;24.308;2023-04-30T13:14:32;2.03;;;1.33;;
27839;SDS011;15207;42.182;24.308;2023-04-30T13:16:58;1.23;;;1.10;;
27839;SDS011;15207;42.182;24.308;2023-04-30T13:19:25;2.83;;;1.30;;
27839;SDS011;15207;42.182;24.308;2023-04-30T13:21:51;1.50;;;1.40;;
27839;SDS011;15207;42.182;24.308;2023-04-30T13:24:16;1.92;;;1.50;;
27839;SDS011;15207;42.182;24.308;2023-04-30T13:26:43;3.92;;;1.90;;
27839;SDS011;15207;42.182;24.308;2023-04-30T13:29:08;1.52;;;1.42;;
27839;SDS011;15207;42.182;24.308;2023-04-30T13:31:35;1.38;;;1.27;;
27839;SDS011;15207;42.182;24.308;2023-04-30T13:34:01;1.42;;;1.33;;
27839;SDS011;15207;42.182;24.308;2023-04-30T13:36:26;1.35;;;1.25;;
27839;SDS011;15207;42.182;24.308;2023-04-30T13:38:53;2.83;;;1.52;;
27839;SDS011;15207;42.182;24.308;2023-04-30T13:41:18;1.63;;;1.40;;
27839;SDS011;15207;42.182;24.308;2023-04-30T13:43:46;1.92;;;1.50;;
27839;SDS011;15207;42.182;24.308;2023-04-30T13:46:12;4.40;;;1.20;;
27839;SDS011;15207;42.182;24.308;2023-04-30T13:48:38;3.95;;;1.20;;
27839;SDS011;15207;42.182;24.308;2023-04-30T13:51:03;1.30;;;1.20;;
27839;SDS011;15207;42.182;24.308;2023-04-30T13:53:30;1.38;;;0.90;;
27839;SDS011;15207;42.182;24.308;2023-04-30T13:55:56;1.20;;;1.10;;
27839;SDS011;15207;42.182;24.308;2023-04-30T13:58:23;1.10;;;1.05;;
27839;SDS011;15207;42.182;24.308;2023-04-30T14:00:49;1.30;;;1.20;;
27839;SDS011;15207;42.182;24.308;2023-04-30T14:03:15;1.10;;;1.00;;
27839;SDS011;15207;42.182;24.308;2023-04-30T14:05:42;2.17;;;1.23;;
27839;SDS011;15207;42.182;24.308;2023-04-30T14:08:08;1.10;;;1.00;;
27839;SDS011;15207;42.182;24.308;2023-04-30T14:10:33;1.20;;;1.10;;
27839;SDS011;15207;42.182;24.308;2023-04-30T14:12:59;1.00;;;1.00;;
27839;SDS011;15207;42.182;24.308;2023-04-30T14:15:24;1.10;;;1.00;;
27839;SDS011;15207;42.182;24.308;2023-04-30T14:17:50;1.50;;;0.90;;
27839;SDS011;15207;42.182;24.308;2023-04-30T14:20:16;1.35;;;0.90;;
27839;SDS011;15207;42.182;24.308;2023-04-30T14:22:42;1.65;;;1.10;;
27839;SDS011;15207;42.182;24.308;2023-04-30T14:25:08;1.25;;;0.90;;
27839;SDS011;15207;42.182;24.308;2023-04-30T14:27:34;0.82;;;0.70;;
27839;SDS011;15207;42.182;24.308;2023-04-30T14:30:00;1.10;;;0.85;;
27839;SDS011;15207;42.182;24.308;2023-04-30T14:32:26;1.27;;;0.90;;
27839;SDS011;15207;42.182;24.308;2023-04-30T14:34:52;0.95;;;0.68;;
27839;SDS011;15207;42.182;24.308;2023-04-30T14:37:18;1.00;;;0.90;;
27839;SDS011;15207;42.182;24.308;2023-04-30T14:39:44;0.80;;;0.80;;
27839;SDS011;15207;42.182;24.308;2023-04-30T14:42:10;1.23;;;1.00;;
27839;SDS011;15207;42.182;24.308;2023-04-30T14:44:36;1.00;;;0.73;;
27839;SDS011;15207;42.182;24.308;2023-04-30T14:47:02;0.98;;;0.90;;
27839;SDS011;15207;42.182;24.308;2023-04-30T14:49:28;1.17;;;1.00;;
27839;SDS011;15207;42.182;24.308;2023-04-30T14:51:54;0.85;;;0.70;;
27839;SDS011;15207;42.182;24.308;2023-04-30T14:54:19;1.05;;;1.00;;
27839;SDS011;15207;42.182;24.308;2023-04-30T14:56:46;1.75;;;1.15;;
27839;SDS011;15207;42.182;24.308;2023-04-30T14:59:12;1.13;;;1.00;;
27839;SDS011;15207;42.182;24.308;2023-04-30T15:01:38;1.10;;;1.00;;
27839;SDS011;15207;42.182;24.308;2023-04-30T15:04:04;1.00;;;0.90;;
27839;SDS011;15207;42.182;24.308;2023-04-30T15:06:30;1.65;;;0.95;;
27839;SDS011;15207;42.182;24.308;2023-04-30T15:08:55;2.75;;;1.15;;
27839;SDS011;15207;42.182;24.308;2023-04-30T15:11:21;1.13;;;1.00;;
27839;SDS011;15207;42.182;24.308;2023-04-30T15:13:48;1.15;;;0.90;;
27839;SDS011;15207;42.182;24.308;2023-04-30T15:16:14;1.08;;;0.98;;